Terminal Aerodrome Forecast
Issued by NWS Albany, NY

Home | Current Version | Previous Version | Text Only | Print | Product List | Glossary On
Versions: 1 2 3 4 5 6 7 8 9 10 11 12 13 14 15 16 17 18
000
FTUS41 KALY 280533
TAFALB
TAF
KALB 280533Z 2806/2906 00000KT P6SM FEW060
     FM280900 17004KT 2SM BR FEW003 SCT060
     FM281200 17006KT P6SM BKN050 BKN200
     FM281700 19007KT P6SM SCT050 BKN150
     FM290400 20006KT P6SM VCSH BKN150 OVC200=

USA.gov is the U.S. government's official web portal to all federal, state and local government web resources and services.